sensor_id;sensor_type;location;lat;lon;timestamp;P1;durP1;ratioP1;P2;durP2;ratioP2
46561;SDS011;32289;42.688;23.330;2023-07-13T00:00:54;8.88;;;3.50;;
46561;SDS011;32289;42.688;23.330;2023-07-13T00:04:36;6.70;;;3.78;;
46561;SDS011;32289;42.688;23.330;2023-07-13T00:08:16;8.32;;;3.75;;
46561;SDS011;32289;42.688;23.330;2023-07-13T00:11:58;6.53;;;3.30;;
46561;SDS011;32289;42.688;23.330;2023-07-13T00:15:39;6.50;;;3.17;;
46561;SDS011;32289;42.688;23.330;2023-07-13T00:19:21;10.13;;;3.85;;
46561;SDS011;32289;42.688;23.330;2023-07-13T00:23:02;5.28;;;3.38;;
46561;SDS011;32289;42.688;23.330;2023-07-13T00:26:43;9.50;;;4.07;;
46561;SDS011;32289;42.688;23.330;2023-07-13T00:30:25;8.85;;;3.72;;
46561;SDS011;32289;42.688;23.330;2023-07-13T00:34:06;6.70;;;3.42;;
46561;SDS011;32289;42.688;23.330;2023-07-13T00:37:47;14.25;;;4.32;;
46561;SDS011;32289;42.688;23.330;2023-07-13T00:41:29;8.52;;;3.63;;
46561;SDS011;32289;42.688;23.330;2023-07-13T00:48:56;7.80;;;3.88;;
46561;SDS011;32289;42.688;23.330;2023-07-13T00:52:42;9.80;;;4.72;;
46561;SDS011;32289;42.688;23.330;2023-07-13T00:56:27;10.68;;;4.45;;
46561;SDS011;32289;42.688;23.330;2023-07-13T01:00:09;16.77;;;8.63;;
46561;SDS011;32289;42.688;23.330;2023-07-13T01:03:50;9.25;;;5.05;;
46561;SDS011;32289;42.688;23.330;2023-07-13T01:07:31;6.72;;;4.18;;
46561;SDS011;32289;42.688;23.330;2023-07-13T01:11:12;10.23;;;4.47;;
46561;SDS011;32289;42.688;23.330;2023-07-13T01:14:59;8.68;;;4.25;;
46561;SDS011;32289;42.688;23.330;2023-07-13T01:18:41;7.22;;;4.30;;
46561;SDS011;32289;42.688;23.330;2023-07-13T01:22:22;13.27;;;4.05;;
46561;SDS011;32289;42.688;23.330;2023-07-13T01:26:05;5.35;;;3.92;;
46561;SDS011;32289;42.688;23.330;2023-07-13T01:29:46;9.90;;;4.03;;
46561;SDS011;32289;42.688;23.330;2023-07-13T01:33:27;6.40;;;4.68;;
46561;SDS011;32289;42.688;23.330;2023-07-13T01:37:09;8.70;;;4.68;;
46561;SDS011;32289;42.688;23.330;2023-07-13T01:40:51;10.80;;;4.82;;
46561;SDS011;32289;42.688;23.330;2023-07-13T01:44:32;12.10;;;4.63;;
46561;SDS011;32289;42.688;23.330;2023-07-13T01:48:13;5.88;;;3.95;;
46561;SDS011;32289;42.688;23.330;2023-07-13T01:51:54;9.15;;;4.88;;
46561;SDS011;32289;42.688;23.330;2023-07-13T01:55:35;11.35;;;4.97;;
46561;SDS011;32289;42.688;23.330;2023-07-13T01:59:15;13.65;;;5.43;;
46561;SDS011;32289;42.688;23.330;2023-07-13T02:02:57;6.30;;;4.38;;
46561;SDS011;32289;42.688;23.330;2023-07-13T02:06:38;12.52;;;4.35;;
46561;SDS011;32289;42.688;23.330;2023-07-13T02:10:20;13.77;;;4.30;;
46561;SDS011;32289;42.688;23.330;2023-07-13T02:14:00;9.23;;;5.30;;
46561;SDS011;32289;42.688;23.330;2023-07-13T02:17:42;9.57;;;4.63;;
46561;SDS011;32289;42.688;23.330;2023-07-13T02:21:23;10.30;;;4.60;;
46561;SDS011;32289;42.688;23.330;2023-07-13T02:25:05;7.65;;;4.40;;
46561;SDS011;32289;42.688;23.330;2023-07-13T02:28:46;14.48;;;5.35;;
46561;SDS011;32289;42.688;23.330;2023-07-13T02:32:27;9.13;;;5.25;;
46561;SDS011;32289;42.688;23.330;2023-07-13T02:36:08;13.85;;;4.93;;
46561;SDS011;32289;42.688;23.330;2023-07-13T02:39:49;10.20;;;5.32;;
46561;SDS011;32289;42.688;23.330;2023-07-13T02:43:30;13.35;;;5.82;;
46561;SDS011;32289;42.688;23.330;2023-07-13T02:47:11;8.98;;;5.07;;
46561;SDS011;32289;42.688;23.330;2023-07-13T02:50:53;8.45;;;4.65;;
46561;SDS011;32289;42.688;23.330;2023-07-13T02:54:33;13.77;;;5.28;;
46561;SDS011;32289;42.688;23.330;2023-07-13T02:58:14;10.65;;;5.25;;
46561;SDS011;32289;42.688;23.330;2023-07-13T03:01:57;9.68;;;5.03;;
46561;SDS011;32289;42.688;23.330;2023-07-13T03:05:40;9.50;;;4.72;;
46561;SDS011;32289;42.688;23.330;2023-07-13T03:09:22;10.48;;;5.00;;
46561;SDS011;32289;42.688;23.330;2023-07-13T03:13:04;14.38;;;5.35;;
46561;SDS011;32289;42.688;23.330;2023-07-13T03:16:45;10.88;;;5.28;;
46561;SDS011;32289;42.688;23.330;2023-07-13T03:20:26;10.52;;;5.18;;
46561;SDS011;32289;42.688;23.330;2023-07-13T03:24:07;12.73;;;5.57;;
46561;SDS011;32289;42.688;23.330;2023-07-13T03:27:47;12.60;;;5.22;;
46561;SDS011;32289;42.688;23.330;2023-07-13T03:31:28;8.48;;;5.03;;
46561;SDS011;32289;42.688;23.330;2023-07-13T03:35:10;13.18;;;5.25;;
46561;SDS011;32289;42.688;23.330;2023-07-13T03:38:52;9.27;;;5.07;;
46561;SDS011;32289;42.688;23.330;2023-07-13T03:42:35;8.02;;;5.28;;
46561;SDS011;32289;42.688;23.330;2023-07-13T03:46:17;8.07;;;5.45;;
46561;SDS011;32289;42.688;23.330;2023-07-13T03:49:58;11.05;;;5.50;;
46561;SDS011;32289;42.688;23.330;2023-07-13T03:53:39;10.50;;;5.03;;
46561;SDS011;32289;42.688;23.330;2023-07-13T03:57:22;7.45;;;5.55;;
46561;SDS011;32289;42.688;23.330;2023-07-13T04:01:03;11.95;;;5.38;;
46561;SDS011;32289;42.688;23.330;2023-07-13T04:04:45;14.30;;;5.28;;
46561;SDS011;32289;42.688;23.330;2023-07-13T04:08:27;11.20;;;5.28;;
46561;SDS011;32289;42.688;23.330;2023-07-13T04:12:08;9.90;;;5.47;;
46561;SDS011;32289;42.688;23.330;2023-07-13T04:15:50;7.95;;;4.82;;
46561;SDS011;32289;42.688;23.330;2023-07-13T04:19:32;8.80;;;6.10;;
46561;SDS011;32289;42.688;23.330;2023-07-13T04:23:13;9.45;;;5.55;;
46561;SDS011;32289;42.688;23.330;2023-07-13T04:26:54;9.48;;;4.88;;
46561;SDS011;32289;42.688;23.330;2023-07-13T04:30:35;10.55;;;5.38;;
46561;SDS011;32289;42.688;23.330;2023-07-13T04:34:16;11.23;;;5.80;;
46561;SDS011;32289;42.688;23.330;2023-07-13T04:37:58;8.02;;;5.07;;
46561;SDS011;32289;42.688;23.330;2023-07-13T04:41:38;10.65;;;5.90;;
46561;SDS011;32289;42.688;23.330;2023-07-13T04:45:20;9.55;;;6.38;;
46561;SDS011;32289;42.688;23.330;2023-07-13T04:49:01;12.38;;;5.75;;
46561;SDS011;32289;42.688;23.330;2023-07-13T04:52:43;12.02;;;5.88;;
46561;SDS011;32289;42.688;23.330;2023-07-13T04:56:25;9.35;;;6.00;;
46561;SDS011;32289;42.688;23.330;2023-07-13T05:00:06;11.65;;;6.30;;
46561;SDS011;32289;42.688;23.330;2023-07-13T05:03:47;12.90;;;6.93;;
46561;SDS011;32289;42.688;23.330;2023-07-13T05:07:28;11.98;;;6.13;;
46561;SDS011;32289;42.688;23.330;2023-07-13T05:11:10;14.57;;;6.10;;
46561;SDS011;32289;42.688;23.330;2023-07-13T05:14:51;10.52;;;6.13;;
46561;SDS011;32289;42.688;23.330;2023-07-13T05:18:32;11.35;;;6.22;;
46561;SDS011;32289;42.688;23.330;2023-07-13T05:22:14;13.35;;;5.95;;
46561;SDS011;32289;42.688;23.330;2023-07-13T05:25:55;9.73;;;6.25;;
46561;SDS011;32289;42.688;23.330;2023-07-13T05:29:36;13.88;;;6.78;;
46561;SDS011;32289;42.688;23.330;2023-07-13T05:33:17;10.80;;;6.95;;
46561;SDS011;32289;42.688;23.330;2023-07-13T05:36:58;8.00;;;5.93;;
46561;SDS011;32289;42.688;23.330;2023-07-13T05:40:39;10.73;;;6.47;;
46561;SDS011;32289;42.688;23.330;2023-07-13T05:44:22;14.15;;;6.88;;
46561;SDS011;32289;42.688;23.330;2023-07-13T05:48:03;11.32;;;7.20;;
46561;SDS011;32289;42.688;23.330;2023-07-13T05:51:44;13.10;;;6.63;;
46561;SDS011;32289;42.688;23.330;2023-07-13T05:55:25;11.43;;;7.63;;
46561;SDS011;32289;42.688;23.330;2023-07-13T05:59:06;13.90;;;7.35;;
46561;SDS011;32289;42.688;23.330;2023-07-13T06:02:46;14.80;;;6.97;;
46561;SDS011;32289;42.688;23.330;2023-07-13T06:06:27;9.45;;;6.25;;
46561;SDS011;32289;42.688;23.330;2023-07-13T06:10:08;9.05;;;6.30;;
46561;SDS011;32289;42.688;23.330;2023-07-13T06:13:49;10.82;;;6.45;;
46561;SDS011;32289;42.688;23.330;2023-07-13T06:17:30;16.08;;;6.18;;
46561;SDS011;32289;42.688;23.330;2023-07-13T06:21:21;12.75;;;6.40;;
46561;SDS011;32289;42.688;23.330;2023-07-13T06:25:02;9.38;;;6.72;;
46561;SDS011;32289;42.688;23.330;2023-07-13T06:28:43;9.93;;;6.18;;
46561;SDS011;32289;42.688;23.330;2023-07-13T06:32:25;14.23;;;7.05;;
46561;SDS011;32289;42.688;23.330;2023-07-13T06:36:07;13.77;;;7.55;;
46561;SDS011;32289;42.688;23.330;2023-07-13T06:39:50;15.52;;;6.68;;
46561;SDS011;32289;42.688;23.330;2023-07-13T06:43:30;11.63;;;6.50;;
46561;SDS011;32289;42.688;23.330;2023-07-13T06:47:12;13.88;;;6.13;;
46561;SDS011;32289;42.688;23.330;2023-07-13T06:50:52;9.35;;;6.05;;
46561;SDS011;32289;42.688;23.330;2023-07-13T06:54:33;15.05;;;7.40;;
46561;SDS011;32289;42.688;23.330;2023-07-13T06:58:15;13.63;;;7.03;;
46561;SDS011;32289;42.688;23.330;2023-07-13T07:01:58;9.75;;;6.53;;
46561;SDS011;32289;42.688;23.330;2023-07-13T07:05:39;16.40;;;6.47;;
46561;SDS011;32289;42.688;23.330;2023-07-13T07:09:19;15.18;;;6.90;;
46561;SDS011;32289;42.688;23.330;2023-07-13T07:13:00;6.93;;;5.18;;
46561;SDS011;32289;42.688;23.330;2023-07-13T07:16:42;15.38;;;6.47;;
46561;SDS011;32289;42.688;23.330;2023-07-13T07:20:22;11.68;;;6.40;;
46561;SDS011;32289;42.688;23.330;2023-07-13T07:24:04;11.90;;;6.40;;
46561;SDS011;32289;42.688;23.330;2023-07-13T07:27:45;11.18;;;6.35;;
46561;SDS011;32289;42.688;23.330;2023-07-13T07:31:26;7.18;;;5.85;;
46561;SDS011;32289;42.688;23.330;2023-07-13T07:35:06;9.48;;;5.85;;
46561;SDS011;32289;42.688;23.330;2023-07-13T07:38:47;8.75;;;5.25;;
46561;SDS011;32289;42.688;23.330;2023-07-13T07:42:31;7.65;;;5.65;;
46561;SDS011;32289;42.688;23.330;2023-07-13T07:46:12;16.15;;;5.70;;
46561;SDS011;32289;42.688;23.330;2023-07-13T07:49:53;8.82;;;6.28;;
46561;SDS011;32289;42.688;23.330;2023-07-13T07:53:39;10.43;;;6.22;;
46561;SDS011;32289;42.688;23.330;2023-07-13T07:57:20;8.77;;;5.55;;
46561;SDS011;32289;42.688;23.330;2023-07-13T08:01:07;9.15;;;5.97;;
46561;SDS011;32289;42.688;23.330;2023-07-13T08:08:29;9.05;;;5.05;;
46561;SDS011;32289;42.688;23.330;2023-07-13T08:12:09;6.53;;;4.55;;
46561;SDS011;32289;42.688;23.330;2023-07-13T08:15:50;10.80;;;5.20;;
46561;SDS011;32289;42.688;23.330;2023-07-13T08:19:32;12.15;;;5.82;;
46561;SDS011;32289;42.688;23.330;2023-07-13T08:23:13;9.80;;;4.63;;
46561;SDS011;32289;42.688;23.330;2023-07-13T08:26:53;11.30;;;5.82;;
46561;SDS011;32289;42.688;23.330;2023-07-13T08:30:34;8.70;;;5.35;;
46561;SDS011;32289;42.688;23.330;2023-07-13T08:34:16;9.70;;;5.60;;
46561;SDS011;32289;42.688;23.330;2023-07-13T08:37:57;11.48;;;5.63;;
46561;SDS011;32289;42.688;23.330;2023-07-13T08:41:38;9.93;;;6.10;;
46561;SDS011;32289;42.688;23.330;2023-07-13T08:45:23;11.07;;;5.82;;
46561;SDS011;32289;42.688;23.330;2023-07-13T08:49:22;9.45;;;5.57;;
46561;SDS011;32289;42.688;23.330;2023-07-13T08:53:03;10.00;;;6.13;;
46561;SDS011;32289;42.688;23.330;2023-07-13T08:56:44;12.13;;;5.82;;
46561;SDS011;32289;42.688;23.330;2023-07-13T09:00:34;13.35;;;5.80;;
46561;SDS011;32289;42.688;23.330;2023-07-13T09:04:46;9.60;;;5.53;;
46561;SDS011;32289;42.688;23.330;2023-07-13T09:16:24;10.52;;;6.45;;
46561;SDS011;32289;42.688;23.330;2023-07-13T09:20:10;10.48;;;6.10;;
46561;SDS011;32289;42.688;23.330;2023-07-13T09:24:27;10.98;;;6.55;;
46561;SDS011;32289;42.688;23.330;2023-07-13T09:28:26;10.23;;;5.35;;
46561;SDS011;32289;42.688;23.330;2023-07-13T09:32:11;9.73;;;5.80;;
46561;SDS011;32289;42.688;23.330;2023-07-13T09:35:55;10.90;;;6.90;;
46561;SDS011;32289;42.688;23.330;2023-07-13T09:39:39;9.75;;;6.80;;
46561;SDS011;32289;42.688;23.330;2023-07-13T09:43:22;9.80;;;5.75;;
46561;SDS011;32289;42.688;23.330;2023-07-13T09:47:03;12.40;;;6.75;;
46561;SDS011;32289;42.688;23.330;2023-07-13T09:50:55;10.02;;;6.00;;
46561;SDS011;32289;42.688;23.330;2023-07-13T09:54:48;10.32;;;5.82;;
46561;SDS011;32289;42.688;23.330;2023-07-13T09:58:30;10.73;;;6.30;;
46561;SDS011;32289;42.688;23.330;2023-07-13T10:06:15;10.13;;;5.82;;
46561;SDS011;32289;42.688;23.330;2023-07-13T10:09:58;9.85;;;6.57;;
46561;SDS011;32289;42.688;23.330;2023-07-13T10:13:50;9.25;;;6.00;;
46561;SDS011;32289;42.688;23.330;2023-07-13T10:17:37;12.00;;;5.28;;
46561;SDS011;32289;42.688;23.330;2023-07-13T10:21:21;10.38;;;6.22;;
46561;SDS011;32289;42.688;23.330;2023-07-13T10:25:17;12.00;;;5.32;;
46561;SDS011;32289;42.688;23.330;2023-07-13T10:29:06;12.15;;;5.68;;
46561;SDS011;32289;42.688;23.330;2023-07-13T10:32:52;6.00;;;4.30;;
46561;SDS011;32289;42.688;23.330;2023-07-13T10:36:40;12.07;;;5.72;;
46561;SDS011;32289;42.688;23.330;2023-07-13T10:40:25;7.35;;;4.63;;
46561;SDS011;32289;42.688;23.330;2023-07-13T10:44:33;6.10;;;3.60;;
46561;SDS011;32289;42.688;23.330;2023-07-13T10:48:16;8.90;;;3.70;;
46561;SDS011;32289;42.688;23.330;2023-07-13T10:51:58;7.68;;;4.15;;
46561;SDS011;32289;42.688;23.330;2023-07-13T10:59:30;6.72;;;3.83;;
46561;SDS011;32289;42.688;23.330;2023-07-13T11:03:17;9.40;;;4.43;;
46561;SDS011;32289;42.688;23.330;2023-07-13T11:07:09;20.67;;;6.75;;
46561;SDS011;32289;42.688;23.330;2023-07-13T11:10:58;7.13;;;3.47;;
46561;SDS011;32289;42.688;23.330;2023-07-13T11:18:35;8.73;;;4.80;;
46561;SDS011;32289;42.688;23.330;2023-07-13T11:22:26;7.88;;;3.60;;
46561;SDS011;32289;42.688;23.330;2023-07-13T11:34:07;8.70;;;4.15;;
46561;SDS011;32289;42.688;23.330;2023-07-13T11:37:56;8.07;;;4.15;;
46561;SDS011;32289;42.688;23.330;2023-07-13T11:41:38;8.35;;;4.28;;
46561;SDS011;32289;42.688;23.330;2023-07-13T11:49:08;6.68;;;3.85;;
46561;SDS011;32289;42.688;23.330;2023-07-13T11:52:54;6.55;;;4.20;;
46561;SDS011;32289;42.688;23.330;2023-07-13T11:56:38;7.28;;;4.78;;
46561;SDS011;32289;42.688;23.330;2023-07-13T12:00:25;8.15;;;4.55;;
46561;SDS011;32289;42.688;23.330;2023-07-13T12:04:22;9.00;;;3.55;;
46561;SDS011;32289;42.688;23.330;2023-07-13T12:08:15;5.85;;;3.55;;
46561;SDS011;32289;42.688;23.330;2023-07-13T12:11:58;11.48;;;4.25;;
46561;SDS011;32289;42.688;23.330;2023-07-13T12:15:44;11.55;;;3.80;;
46561;SDS011;32289;42.688;23.330;2023-07-13T12:19:27;9.77;;;3.95;;
46561;SDS011;32289;42.688;23.330;2023-07-13T12:23:50;13.93;;;4.38;;
46561;SDS011;32289;42.688;23.330;2023-07-13T12:27:20;7.50;;;4.50;;
46561;SDS011;32289;42.688;23.330;2023-07-13T12:31:29;8.68;;;4.10;;
46561;SDS011;32289;42.688;23.330;2023-07-13T12:35:16;7.28;;;3.50;;
46561;SDS011;32289;42.688;23.330;2023-07-13T12:39:11;12.73;;;3.92;;
46561;SDS011;32289;42.688;23.330;2023-07-13T12:42:55;7.43;;;3.35;;
46561;SDS011;32289;42.688;23.330;2023-07-13T12:46:36;8.32;;;3.95;;
46561;SDS011;32289;42.688;23.330;2023-07-13T12:50:18;8.07;;;4.00;;
46561;SDS011;32289;42.688;23.330;2023-07-13T12:54:17;11.18;;;4.38;;
46561;SDS011;32289;42.688;23.330;2023-07-13T12:57:59;9.60;;;3.75;;
46561;SDS011;32289;42.688;23.330;2023-07-13T13:01:45;8.98;;;4.10;;
46561;SDS011;32289;42.688;23.330;2023-07-13T13:05:29;12.30;;;3.90;;
46561;SDS011;32289;42.688;23.330;2023-07-13T13:09:13;7.72;;;3.95;;
46561;SDS011;32289;42.688;23.330;2023-07-13T13:12:56;11.23;;;3.45;;
46561;SDS011;32289;42.688;23.330;2023-07-13T13:16:46;10.80;;;4.18;;
46561;SDS011;32289;42.688;23.330;2023-07-13T13:20:29;8.05;;;3.83;;
46561;SDS011;32289;42.688;23.330;2023-07-13T13:24:13;13.52;;;3.65;;
46561;SDS011;32289;42.688;23.330;2023-07-13T13:27:56;9.77;;;3.70;;
46561;SDS011;32289;42.688;23.330;2023-07-13T13:31:36;13.18;;;5.85;;
46561;SDS011;32289;42.688;23.330;2023-07-13T13:35:20;7.35;;;3.33;;
46561;SDS011;32289;42.688;23.330;2023-07-13T13:39:16;15.98;;;5.20;;
46561;SDS011;32289;42.688;23.330;2023-07-13T13:43:08;8.00;;;3.90;;
46561;SDS011;32289;42.688;23.330;2023-07-13T13:47:04;13.02;;;3.72;;
46561;SDS011;32289;42.688;23.330;2023-07-13T13:50:48;10.43;;;4.05;;
46561;SDS011;32289;42.688;23.330;2023-07-13T13:54:37;15.55;;;3.30;;
46561;SDS011;32289;42.688;23.330;2023-07-13T13:58:19;7.30;;;3.22;;
46561;SDS011;32289;42.688;23.330;2023-07-13T14:02:00;9.02;;;4.18;;
46561;SDS011;32289;42.688;23.330;2023-07-13T14:05:40;9.95;;;4.10;;
46561;SDS011;32289;42.688;23.330;2023-07-13T14:09:21;9.50;;;3.88;;
46561;SDS011;32289;42.688;23.330;2023-07-13T14:13:02;8.50;;;3.67;;
46561;SDS011;32289;42.688;23.330;2023-07-13T14:16:45;8.75;;;4.50;;
46561;SDS011;32289;42.688;23.330;2023-07-13T14:20:33;8.10;;;4.10;;
46561;SDS011;32289;42.688;23.330;2023-07-13T14:24:14;10.10;;;4.07;;
46561;SDS011;32289;42.688;23.330;2023-07-13T14:27:57;9.70;;;3.90;;
46561;SDS011;32289;42.688;23.330;2023-07-13T14:31:48;11.05;;;5.88;;
46561;SDS011;32289;42.688;23.330;2023-07-13T14:35:28;7.32;;;3.92;;
46561;SDS011;32289;42.688;23.330;2023-07-13T14:39:14;9.77;;;3.78;;
46561;SDS011;32289;42.688;23.330;2023-07-13T14:42:57;7.00;;;3.72;;
46561;SDS011;32289;42.688;23.330;2023-07-13T14:46:38;10.82;;;3.47;;
46561;SDS011;32289;42.688;23.330;2023-07-13T14:50:20;9.85;;;5.90;;
46561;SDS011;32289;42.688;23.330;2023-07-13T14:54:10;7.32;;;3.97;;
46561;SDS011;32289;42.688;23.330;2023-07-13T14:57:51;15.07;;;4.03;;
46561;SDS011;32289;42.688;23.330;2023-07-13T15:01:33;7.78;;;4.07;;
46561;SDS011;32289;42.688;23.330;2023-07-13T15:05:16;11.90;;;4.30;;
46561;SDS011;32289;42.688;23.330;2023-07-13T15:09:00;10.68;;;5.35;;
46561;SDS011;32289;42.688;23.330;2023-07-13T15:12:41;9.55;;;4.57;;
46561;SDS011;32289;42.688;23.330;2023-07-13T15:16:22;11.07;;;5.10;;
46561;SDS011;32289;42.688;23.330;2023-07-13T15:24:10;6.72;;;3.60;;
46561;SDS011;32289;42.688;23.330;2023-07-13T15:27:52;13.90;;;5.20;;
46561;SDS011;32289;42.688;23.330;2023-07-13T15:31:33;8.60;;;4.57;;
46561;SDS011;32289;42.688;23.330;2023-07-13T15:35:24;8.73;;;3.50;;
46561;SDS011;32289;42.688;23.330;2023-07-13T15:39:08;10.65;;;4.80;;
46561;SDS011;32289;42.688;23.330;2023-07-13T15:42:58;12.88;;;5.88;;
46561;SDS011;32289;42.688;23.330;2023-07-13T15:46:38;14.80;;;6.85;;
46561;SDS011;32289;42.688;23.330;2023-07-13T15:50:20;10.65;;;5.28;;
46561;SDS011;32289;42.688;23.330;2023-07-13T15:54:03;10.98;;;6.55;;
46561;SDS011;32289;42.688;23.330;2023-07-13T15:57:49;11.80;;;4.18;;
46561;SDS011;32289;42.688;23.330;2023-07-13T16:01:32;10.15;;;4.53;;
46561;SDS011;32289;42.688;23.330;2023-07-13T16:05:14;11.40;;;4.15;;
46561;SDS011;32289;42.688;23.330;2023-07-13T16:08:56;13.48;;;4.30;;
46561;SDS011;32289;42.688;23.330;2023-07-13T16:12:38;9.40;;;5.07;;
46561;SDS011;32289;42.688;23.330;2023-07-13T16:16:19;13.43;;;5.45;;
46561;SDS011;32289;42.688;23.330;2023-07-13T16:20:05;9.75;;;3.70;;
46561;SDS011;32289;42.688;23.330;2023-07-13T16:23:51;10.07;;;4.50;;
46561;SDS011;32289;42.688;23.330;2023-07-13T16:27:32;13.18;;;4.90;;
46561;SDS011;32289;42.688;23.330;2023-07-13T16:31:14;11.38;;;4.55;;
46561;SDS011;32289;42.688;23.330;2023-07-13T16:34:54;9.57;;;4.32;;
46561;SDS011;32289;42.688;23.330;2023-07-13T16:38:35;9.82;;;4.68;;
46561;SDS011;32289;42.688;23.330;2023-07-13T16:42:17;9.10;;;4.25;;
46561;SDS011;32289;42.688;23.330;2023-07-13T16:45:58;9.98;;;4.50;;
46561;SDS011;32289;42.688;23.330;2023-07-13T16:49:44;8.65;;;4.63;;
46561;SDS011;32289;42.688;23.330;2023-07-13T16:53:27;10.70;;;6.03;;
46561;SDS011;32289;42.688;23.330;2023-07-13T16:57:17;14.30;;;6.78;;
46561;SDS011;32289;42.688;23.330;2023-07-13T17:01:00;8.32;;;5.07;;
46561;SDS011;32289;42.688;23.330;2023-07-13T17:04:44;19.60;;;4.97;;
46561;SDS011;32289;42.688;23.330;2023-07-13T17:08:29;11.90;;;6.88;;
46561;SDS011;32289;42.688;23.330;2023-07-13T17:12:12;23.00;;;14.25;;
46561;SDS011;32289;42.688;23.330;2023-07-13T17:15:53;11.50;;;6.18;;
46561;SDS011;32289;42.688;23.330;2023-07-13T17:19:39;14.32;;;5.10;;
46561;SDS011;32289;42.688;23.330;2023-07-13T17:23:22;12.80;;;7.43;;
46561;SDS011;32289;42.688;23.330;2023-07-13T17:27:06;15.75;;;8.77;;
46561;SDS011;32289;42.688;23.330;2023-07-13T17:30:48;13.75;;;7.40;;
46561;SDS011;32289;42.688;23.330;2023-07-13T17:34:30;12.60;;;6.78;;
46561;SDS011;32289;42.688;23.330;2023-07-13T17:38:10;13.25;;;8.32;;
46561;SDS011;32289;42.688;23.330;2023-07-13T17:41:57;15.05;;;6.68;;
46561;SDS011;32289;42.688;23.330;2023-07-13T17:45:39;11.25;;;5.85;;
46561;SDS011;32289;42.688;23.330;2023-07-13T17:49:22;14.73;;;5.80;;
46561;SDS011;32289;42.688;23.330;2023-07-13T17:53:15;18.77;;;6.28;;
46561;SDS011;32289;42.688;23.330;2023-07-13T17:56:58;16.58;;;7.32;;
46561;SDS011;32289;42.688;23.330;2023-07-13T18:00:40;14.50;;;6.85;;
46561;SDS011;32289;42.688;23.330;2023-07-13T18:04:23;17.83;;;7.03;;
46561;SDS011;32289;42.688;23.330;2023-07-13T18:08:21;17.00;;;5.97;;
46561;SDS011;32289;42.688;23.330;2023-07-13T18:12:02;15.60;;;5.60;;
46561;SDS011;32289;42.688;23.330;2023-07-13T18:15:44;12.45;;;6.72;;
46561;SDS011;32289;42.688;23.330;2023-07-13T18:19:28;17.63;;;7.13;;
46561;SDS011;32289;42.688;23.330;2023-07-13T18:23:19;10.60;;;5.93;;
46561;SDS011;32289;42.688;23.330;2023-07-13T18:27:02;13.05;;;5.57;;
46561;SDS011;32289;42.688;23.330;2023-07-13T18:30:47;14.30;;;6.40;;
46561;SDS011;32289;42.688;23.330;2023-07-13T18:34:38;10.13;;;7.15;;
46561;SDS011;32289;42.688;23.330;2023-07-13T18:38:23;14.32;;;6.35;;
46561;SDS011;32289;42.688;23.330;2023-07-13T18:42:12;14.68;;;5.95;;
46561;SDS011;32289;42.688;23.330;2023-07-13T18:45:54;14.73;;;7.55;;
46561;SDS011;32289;42.688;23.330;2023-07-13T18:49:36;15.20;;;6.78;;
46561;SDS011;32289;42.688;23.330;2023-07-13T18:53:17;23.13;;;9.93;;
46561;SDS011;32289;42.688;23.330;2023-07-13T18:56:59;11.02;;;5.53;;
46561;SDS011;32289;42.688;23.330;2023-07-13T19:00:41;32.33;;;13.65;;
46561;SDS011;32289;42.688;23.330;2023-07-13T19:04:26;24.08;;;6.90;;
46561;SDS011;32289;42.688;23.330;2023-07-13T19:08:16;21.77;;;7.05;;
46561;SDS011;32289;42.688;23.330;2023-07-13T19:11:59;14.75;;;6.80;;
46561;SDS011;32289;42.688;23.330;2023-07-13T19:15:40;9.88;;;6.20;;
46561;SDS011;32289;42.688;23.330;2023-07-13T19:19:22;19.05;;;8.73;;
46561;SDS011;32289;42.688;23.330;2023-07-13T19:23:04;19.70;;;6.95;;
46561;SDS011;32289;42.688;23.330;2023-07-13T19:26:46;19.48;;;7.82;;
46561;SDS011;32289;42.688;23.330;2023-07-13T19:30:30;11.82;;;6.55;;
46561;SDS011;32289;42.688;23.330;2023-07-13T19:34:21;16.02;;;7.47;;
46561;SDS011;32289;42.688;23.330;2023-07-13T19:38:04;19.80;;;9.45;;
46561;SDS011;32289;42.688;23.330;2023-07-13T19:41:45;16.25;;;8.55;;
46561;SDS011;32289;42.688;23.330;2023-07-13T19:45:25;28.02;;;13.13;;
46561;SDS011;32289;42.688;23.330;2023-07-13T19:49:06;31.45;;;11.40;;
46561;SDS011;32289;42.688;23.330;2023-07-13T19:52:56;21.10;;;8.73;;
46561;SDS011;32289;42.688;23.330;2023-07-13T19:56:36;20.65;;;9.35;;
46561;SDS011;32289;42.688;23.330;2023-07-13T20:00:23;17.17;;;9.00;;
46561;SDS011;32289;42.688;23.330;2023-07-13T20:04:06;19.97;;;8.23;;
46561;SDS011;32289;42.688;23.330;2023-07-13T20:07:52;16.30;;;7.50;;
46561;SDS011;32289;42.688;23.330;2023-07-13T20:15:18;23.88;;;6.93;;
46561;SDS011;32289;42.688;23.330;2023-07-13T20:19:01;14.40;;;7.28;;
46561;SDS011;32289;42.688;23.330;2023-07-13T20:22:43;14.73;;;6.47;;
46561;SDS011;32289;42.688;23.330;2023-07-13T20:26:24;11.18;;;7.78;;
46561;SDS011;32289;42.688;23.330;2023-07-13T20:30:08;20.95;;;10.30;;
46561;SDS011;32289;42.688;23.330;2023-07-13T20:33:49;20.17;;;7.78;;
46561;SDS011;32289;42.688;23.330;2023-07-13T20:37:37;18.98;;;9.48;;
46561;SDS011;32289;42.688;23.330;2023-07-13T20:41:18;14.90;;;6.70;;
46561;SDS011;32289;42.688;23.330;2023-07-13T20:44:59;14.23;;;6.40;;
46561;SDS011;32289;42.688;23.330;2023-07-13T20:48:40;17.25;;;6.80;;
46561;SDS011;32289;42.688;23.330;2023-07-13T20:52:30;14.25;;;7.20;;
46561;SDS011;32289;42.688;23.330;2023-07-13T20:56:14;17.65;;;6.57;;
46561;SDS011;32289;42.688;23.330;2023-07-13T20:59:57;19.88;;;9.50;;
46561;SDS011;32289;42.688;23.330;2023-07-13T21:03:38;22.08;;;8.75;;
46561;SDS011;32289;42.688;23.330;2023-07-13T21:07:19;18.05;;;7.40;;
46561;SDS011;32289;42.688;23.330;2023-07-13T21:11:00;12.02;;;5.75;;
46561;SDS011;32289;42.688;23.330;2023-07-13T21:14:41;10.60;;;6.10;;
46561;SDS011;32289;42.688;23.330;2023-07-13T21:18:22;11.57;;;6.25;;
46561;SDS011;32289;42.688;23.330;2023-07-13T21:22:04;16.77;;;6.32;;
46561;SDS011;32289;42.688;23.330;2023-07-13T21:25:49;11.05;;;6.18;;
46561;SDS011;32289;42.688;23.330;2023-07-13T21:29:30;13.52;;;7.30;;
46561;SDS011;32289;42.688;23.330;2023-07-13T21:33:11;15.80;;;6.28;;
46561;SDS011;32289;42.688;23.330;2023-07-13T21:36:55;14.65;;;6.63;;
46561;SDS011;32289;42.688;23.330;2023-07-13T21:40:39;10.75;;;5.07;;
46561;SDS011;32289;42.688;23.330;2023-07-13T21:44:25;9.52;;;5.55;;
46561;SDS011;32289;42.688;23.330;2023-07-13T21:48:08;11.63;;;5.53;;
46561;SDS011;32289;42.688;23.330;2023-07-13T21:51:52;17.08;;;8.18;;
46561;SDS011;32289;42.688;23.330;2023-07-13T21:55:33;12.02;;;5.75;;
46561;SDS011;32289;42.688;23.330;2023-07-13T21:59:31;11.20;;;5.05;;
46561;SDS011;32289;42.688;23.330;2023-07-13T22:03:32;8.85;;;4.90;;
46561;SDS011;32289;42.688;23.330;2023-07-13T22:07:16;12.70;;;8.13;;
46561;SDS011;32289;42.688;23.330;2023-07-13T22:10:58;18.42;;;10.13;;
46561;SDS011;32289;42.688;23.330;2023-07-13T22:14:40;14.32;;;5.28;;
46561;SDS011;32289;42.688;23.330;2023-07-13T22:18:21;12.88;;;6.32;;
46561;SDS011;32289;42.688;23.330;2023-07-13T22:22:03;14.30;;;6.15;;
46561;SDS011;32289;42.688;23.330;2023-07-13T22:25:46;13.15;;;5.90;;
46561;SDS011;32289;42.688;23.330;2023-07-13T22:29:32;10.65;;;5.70;;
46561;SDS011;32289;42.688;23.330;2023-07-13T22:33:18;12.65;;;5.70;;
46561;SDS011;32289;42.688;23.330;2023-07-13T22:37:00;12.90;;;5.88;;
46561;SDS011;32289;42.688;23.330;2023-07-13T22:40:41;14.15;;;5.95;;